Aviation Digital Data Service (ADDS)

Output produced by METARs form (2023 UTC 23 July 2014)
found at http://www.aviationweather.gov/adds/metars/
 
KCMI 231720Z 2318/2418 03013G21KT P6SM SCT045 
     TEMPO 2318/2320 BKN040 
     FM232000 03012G20KT P6SM SCT045 
     FM240100 03009KT P6SM FEW050 
     FM240300 03007KT P6SM SKC 
     FM241500 03008KT P6SM SCT040